createdAt,value
2018-09-19T00:00:16.633Z,3.83
2018-09-19T00:02:44.073Z,4.00
2018-09-19T00:05:11.503Z,4.43
2018-09-19T00:07:38.907Z,3.77
2018-09-19T00:10:06.612Z,3.10
2018-09-19T00:12:34.055Z,4.07
2018-09-19T00:15:01.476Z,3.23
2018-09-19T00:17:29.095Z,4.17
2018-09-19T00:19:56.570Z,3.73
2018-09-19T00:22:24.469Z,3.70
2018-09-19T00:24:51.902Z,3.97
2018-09-19T00:27:19.335Z,3.30
2018-09-19T00:29:47.515Z,3.40
2018-09-19T00:32:14.962Z,4.27
2018-09-19T00:34:42.391Z,3.10
2018-09-19T00:37:09.846Z,4.10
2018-09-19T00:39:37.270Z,3.90
2018-09-19T00:42:04.702Z,3.03
2018-09-19T00:44:32.143Z,3.73
2018-09-19T00:46:59.577Z,3.17
2018-09-19T00:49:27.079Z,3.57
2018-09-19T00:51:54.552Z,3.87
2018-09-19T00:54:22.071Z,3.20
2018-09-19T00:56:49.507Z,3.30
2018-09-19T00:59:16.947Z,4.60
2018-09-19T01:01:44.367Z,3.47
2018-09-19T01:04:11.830Z,3.13
2018-09-19T01:06:39.260Z,3.27
2018-09-19T01:09:07.314Z,3.23
2018-09-19T01:11:34.823Z,3.83
2018-09-19T01:14:02.276Z,4.10
2018-09-19T01:16:29.771Z,3.17
2018-09-19T01:18:57.227Z,2.80
2018-09-19T01:21:24.666Z,3.63
2018-09-19T01:23:52.104Z,3.20
2018-09-19T01:26:19.601Z,3.20
2018-09-19T01:28:46.991Z,3.30
2018-09-19T01:31:14.415Z,3.53
2018-09-19T01:33:41.839Z,4.07
2018-09-19T01:36:09.288Z,3.00
2018-09-19T01:38:36.713Z,2.90
2018-09-19T01:41:04.170Z,3.50
2018-09-19T01:45:01.126Z,3.67
2018-09-19T01:47:28.583Z,3.50
2018-09-19T01:49:56.030Z,3.23
2018-09-19T01:52:23.585Z,3.30
2018-09-19T01:54:51.007Z,3.87
2018-09-19T01:57:18.419Z,2.93
2018-09-19T01:59:45.854Z,3.17
2018-09-19T02:02:13.298Z,3.03
2018-09-19T02:04:40.749Z,3.50
2018-09-19T02:07:08.182Z,3.43
2018-09-19T02:09:35.621Z,3.67
2018-09-19T02:12:03.582Z,3.00
2018-09-19T02:14:31.074Z,2.97
2018-09-19T02:16:58.615Z,3.57
2018-09-19T02:19:26.163Z,3.63
2018-09-19T02:21:53.605Z,3.30
2018-09-19T02:24:21.051Z,3.03
2018-09-19T02:26:48.491Z,3.33
2018-09-19T02:29:15.962Z,3.37
2018-09-19T02:31:43.434Z,3.30
2018-09-19T02:34:10.860Z,3.83
2018-09-19T02:36:38.381Z,3.70
2018-09-19T02:39:07.547Z,4.00
2018-09-19T02:41:34.963Z,3.30
2018-09-19T02:44:02.387Z,3.47
2018-09-19T02:46:29.878Z,3.27
2018-09-19T02:48:57.285Z,3.10
2018-09-19T02:51:24.800Z,2.97
2018-09-19T02:53:52.273Z,3.10
2018-09-19T02:56:19.768Z,2.63
2018-09-19T02:58:47.562Z,3.20
2018-09-19T03:01:14.993Z,2.87
2018-09-19T03:03:42.431Z,3.37
2018-09-19T03:06:09.863Z,3.47
2018-09-19T03:08:38.005Z,3.63
2018-09-19T03:11:05.455Z,4.20
2018-09-19T03:13:32.887Z,3.37
2018-09-19T03:16:00.352Z,3.43
2018-09-19T03:18:27.779Z,3.30
2018-09-19T03:20:55.280Z,3.23
2018-09-19T03:23:22.715Z,3.30
2018-09-19T03:25:50.127Z,2.90
2018-09-19T03:28:17.553Z,3.03
2018-09-19T03:30:44.978Z,2.70
2018-09-19T03:33:12.402Z,2.87
2018-09-19T03:35:39.867Z,3.50
2018-09-19T03:38:07.273Z,3.13
2018-09-19T03:40:34.733Z,3.10
2018-09-19T03:43:02.182Z,3.40
2018-09-19T03:45:29.622Z,3.63
2018-09-19T03:47:57.034Z,3.60
2018-09-19T03:50:24.488Z,3.60
2018-09-19T03:52:51.952Z,3.50
2018-09-19T03:55:19.497Z,3.97
2018-09-19T03:57:47.255Z,3.67
2018-09-19T04:00:14.693Z,3.20
2018-09-19T04:02:42.191Z,2.70
2018-09-19T04:05:09.650Z,3.80
2018-09-19T04:07:37.088Z,3.10
2018-09-19T04:10:04.644Z,3.27
2018-09-19T04:12:32.209Z,3.60
2018-09-19T04:14:59.668Z,4.37
2018-09-19T04:17:27.170Z,3.10
2018-09-19T04:19:54.748Z,4.77
2018-09-19T04:22:22.116Z,3.83
2018-09-19T04:24:49.539Z,3.60
2018-09-19T04:27:17.223Z,3.77
2018-09-19T04:29:44.658Z,4.50
2018-09-19T04:32:12.592Z,3.50
2018-09-19T04:34:40.076Z,3.80
2018-09-19T04:37:08.493Z,4.30
2018-09-19T04:39:35.959Z,3.50
2018-09-19T04:42:04.731Z,3.97
2018-09-19T04:44:32.169Z,3.30
2018-09-19T04:46:59.582Z,3.17
2018-09-19T04:49:27.005Z,5.10
2018-09-19T04:51:54.420Z,3.80
2018-09-19T04:54:21.875Z,3.50
2018-09-19T04:56:49.298Z,2.80
2018-09-19T04:59:16.741Z,3.73
2018-09-19T05:01:44.171Z,4.40
2018-09-19T05:04:11.684Z,5.60
2018-09-19T05:06:39.163Z,5.10
2018-09-19T05:09:07.150Z,7.77
2018-09-19T05:11:34.849Z,6.53
2018-09-19T05:14:02.788Z,7.93
2018-09-19T05:16:30.249Z,8.67
2018-09-19T05:18:57.836Z,7.20
2018-09-19T05:21:25.246Z,7.93
2018-09-19T05:23:52.664Z,10.77
2018-09-19T05:26:20.076Z,8.57
2018-09-19T05:28:47.826Z,14.63
2018-09-19T05:31:15.349Z,12.47
2018-09-19T05:33:42.774Z,13.40
2018-09-19T05:36:10.284Z,11.93
2018-09-19T05:38:37.736Z,8.17
2018-09-19T05:41:05.200Z,9.90
2018-09-19T05:43:32.731Z,9.07
2018-09-19T05:46:00.219Z,7.07
2018-09-19T05:48:27.646Z,7.87
2018-09-19T05:50:55.059Z,8.00
2018-09-19T05:53:22.503Z,8.70
2018-09-19T05:55:49.922Z,7.67
2018-09-19T05:58:17.336Z,8.47
2018-09-19T06:00:44.820Z,7.13
2018-09-19T06:03:12.251Z,4.97
2018-09-19T06:05:39.667Z,7.47
2018-09-19T06:08:07.083Z,6.80
2018-09-19T06:10:34.525Z,8.00
2018-09-19T06:13:02.002Z,8.50
2018-09-19T06:15:29.435Z,7.33
2018-09-19T06:17:56.907Z,8.00
2018-09-19T06:20:24.328Z,7.73
2018-09-19T06:22:51.768Z,6.97
2018-09-19T06:25:19.368Z,9.83
2018-09-19T06:27:46.794Z,7.93
2018-09-19T06:30:14.236Z,5.97
2018-09-19T06:32:41.703Z,6.47
2018-09-19T06:35:09.129Z,6.17
2018-09-19T06:37:36.576Z,6.07
2018-09-19T06:40:04.066Z,6.07
2018-09-19T06:42:31.585Z,6.03
2018-09-19T06:44:59.005Z,5.73
2018-09-19T06:47:26.432Z,6.37
2018-09-19T06:49:54.242Z,6.93
2018-09-19T06:52:21.832Z,7.13
2018-09-19T06:54:49.247Z,7.03
2018-09-19T06:57:16.701Z,7.33
2018-09-19T06:59:44.299Z,7.10
2018-09-19T07:02:11.874Z,7.00
2018-09-19T07:04:39.333Z,7.43
2018-09-19T07:07:06.811Z,6.97
2018-09-19T07:09:34.247Z,5.43
2018-09-19T07:12:01.683Z,6.20
2018-09-19T07:14:29.134Z,7.07
2018-09-19T07:16:56.628Z,7.03
2018-09-19T07:19:24.070Z,6.27
2018-09-19T07:21:51.595Z,7.03
2018-09-19T07:24:19.052Z,6.87
2018-09-19T07:26:46.500Z,7.70
2018-09-19T07:29:13.961Z,6.53
2018-09-19T07:31:41.397Z,7.30
2018-09-19T07:34:08.922Z,4.73
2018-09-19T07:36:36.400Z,6.63
2018-09-19T07:39:05.930Z,7.67
2018-09-19T07:41:33.350Z,6.67
2018-09-19T07:44:00.780Z,8.37
2018-09-19T07:46:28.427Z,5.87
2018-09-19T07:48:55.803Z,6.93
2018-09-19T07:51:23.252Z,6.90
2018-09-19T07:53:50.717Z,7.63
2018-09-19T07:56:18.212Z,7.50
2018-09-19T07:58:45.678Z,6.33
2018-09-19T08:01:13.211Z,6.43
2018-09-19T08:03:40.570Z,6.93
2018-09-19T08:06:08.025Z,7.67
2018-09-19T08:08:35.461Z,8.23
2018-09-19T08:11:02.865Z,7.63
2018-09-19T08:13:30.298Z,7.33
2018-09-19T08:15:57.731Z,5.07
2018-09-19T08:18:25.193Z,5.53
2018-09-19T08:20:52.618Z,6.53
2018-09-19T08:23:20.076Z,7.13
2018-09-19T08:25:47.620Z,5.30
2018-09-19T08:28:15.103Z,5.43
2018-09-19T08:30:42.526Z,6.43
2018-09-19T08:33:09.987Z,6.53
2018-09-19T08:35:37.422Z,6.10
2018-09-19T08:38:04.847Z,6.33
2018-09-19T08:40:32.476Z,5.37
2018-09-19T08:43:00.063Z,6.17
2018-09-19T08:45:27.716Z,5.33
2018-09-19T08:47:55.239Z,6.00
2018-09-19T08:50:22.660Z,5.00
2018-09-19T08:52:50.754Z,5.97
2018-09-19T08:55:18.205Z,5.10
2018-09-19T08:57:45.646Z,4.97
2018-09-19T09:00:13.060Z,5.80
2018-09-19T09:02:40.516Z,4.23
2018-09-19T09:05:08.068Z,6.27
2018-09-19T09:07:36.143Z,4.73
2018-09-19T09:10:03.891Z,6.83
2018-09-19T09:12:31.602Z,6.20
2018-09-19T09:14:59.009Z,5.07
2018-09-19T09:17:26.435Z,4.27
2018-09-19T09:19:53.912Z,7.40
2018-09-19T09:22:21.291Z,6.07
2018-09-19T09:24:48.736Z,5.93
2018-09-19T09:27:16.205Z,6.90
2018-09-19T09:29:43.618Z,6.77
2018-09-19T09:32:11.044Z,5.60
2018-09-19T09:34:38.475Z,4.47
2018-09-19T09:37:05.987Z,4.00
2018-09-19T09:39:33.406Z,4.93
2018-09-19T09:42:00.861Z,4.97
2018-09-19T09:44:28.400Z,4.63
2018-09-19T09:46:55.832Z,5.77
2018-09-19T09:49:23.258Z,4.43
2018-09-19T09:51:50.716Z,4.93
2018-09-19T09:54:18.158Z,4.70
2018-09-19T09:56:45.587Z,5.40
2018-09-19T09:59:13.026Z,5.03
2018-09-19T10:01:40.497Z,5.40
2018-09-19T10:04:07.926Z,4.53
2018-09-19T10:06:35.392Z,4.67
2018-09-19T10:09:04.010Z,7.47
2018-09-19T10:11:31.436Z,4.73
2018-09-19T10:13:58.967Z,5.23
2018-09-19T10:16:26.368Z,5.27
2018-09-19T10:18:53.794Z,5.37
2018-09-19T10:21:21.249Z,5.93
2018-09-19T10:23:48.681Z,4.80
2018-09-19T10:26:16.116Z,4.30
2018-09-19T10:28:43.530Z,4.27
2018-09-19T10:31:10.936Z,4.03
2018-09-19T10:33:38.399Z,4.87
2018-09-19T10:36:05.823Z,4.33
2018-09-19T10:38:33.243Z,4.67
2018-09-19T10:41:00.704Z,3.40
2018-09-19T10:43:28.129Z,4.10
2018-09-19T10:45:55.579Z,3.93
2018-09-19T10:48:23.032Z,3.93
2018-09-19T10:50:50.462Z,4.03
2018-09-19T10:53:17.905Z,4.77
2018-09-19T10:55:45.381Z,4.20
2018-09-19T10:58:12.849Z,4.37
2018-09-19T11:00:40.507Z,4.07
2018-09-19T11:03:07.926Z,5.27
2018-09-19T11:05:35.374Z,4.30
2018-09-19T11:08:02.822Z,4.90
2018-09-19T11:10:30.245Z,4.37
2018-09-19T11:12:57.683Z,4.90
2018-09-19T11:15:25.127Z,4.57
2018-09-19T11:17:52.603Z,4.30
2018-09-19T11:20:20.035Z,4.20
2018-09-19T11:22:47.530Z,4.13
2018-09-19T11:25:15.013Z,3.43
2018-09-19T11:27:43.022Z,3.93
2018-09-19T11:30:10.556Z,4.10
2018-09-19T11:32:38.003Z,3.80
2018-09-19T11:35:05.433Z,4.70
2018-09-19T11:37:32.934Z,4.30
2018-09-19T11:40:00.476Z,3.90
2018-09-19T11:42:27.903Z,3.67
2018-09-19T11:44:55.439Z,4.83
2018-09-19T11:47:22.866Z,3.73
2018-09-19T11:49:50.378Z,4.90
2018-09-19T11:52:17.815Z,3.47
2018-09-19T11:54:45.251Z,3.60
2018-09-19T11:57:12.681Z,3.17
2018-09-19T11:59:40.579Z,4.00
2018-09-19T12:02:08.319Z,3.43
2018-09-19T12:04:35.942Z,3.77
2018-09-19T12:07:03.527Z,4.27
2018-09-19T12:09:30.956Z,3.47
2018-09-19T12:11:58.370Z,3.77
2018-09-19T12:14:25.791Z,3.63
2018-09-19T12:16:53.223Z,3.40
2018-09-19T12:19:20.648Z,3.10
2018-09-19T12:21:48.064Z,3.23
2018-09-19T12:24:15.500Z,3.73
2018-09-19T12:26:42.949Z,3.83
2018-09-19T12:29:10.395Z,3.37
2018-09-19T12:31:38.070Z,3.80
2018-09-19T12:34:05.511Z,3.60
2018-09-19T12:36:32.935Z,4.00
2018-09-19T12:39:00.384Z,3.60
2018-09-19T12:41:27.803Z,3.93
2018-09-19T12:43:55.238Z,3.43
2018-09-19T12:46:22.850Z,3.43
2018-09-19T12:48:50.790Z,3.37
2018-09-19T12:51:18.852Z,4.00
2018-09-19T12:53:46.297Z,3.63
2018-09-19T12:56:13.722Z,3.20
2018-09-19T12:58:41.216Z,3.00
2018-09-19T13:01:08.638Z,3.00
2018-09-19T13:03:36.046Z,3.60
2018-09-19T13:06:03.492Z,3.83
2018-09-19T13:08:30.969Z,4.17
2018-09-19T13:10:58.404Z,3.30
2018-09-19T13:13:25.836Z,3.67
2018-09-19T13:15:53.267Z,3.80
2018-09-19T13:18:20.764Z,3.63
2018-09-19T13:20:48.722Z,3.30
2018-09-19T13:23:16.143Z,3.73
2018-09-19T13:25:43.571Z,3.20
2018-09-19T13:28:11.006Z,3.47
2018-09-19T13:30:38.485Z,3.97
2018-09-19T13:33:05.927Z,3.37
2018-09-19T13:35:33.385Z,4.20
2018-09-19T13:38:00.927Z,3.30
2018-09-19T13:40:28.442Z,3.10
2018-09-19T13:42:55.939Z,3.77
2018-09-19T13:45:23.387Z,2.90
2018-09-19T13:47:51.035Z,3.37
2018-09-19T13:50:20.629Z,3.63
2018-09-19T13:52:48.091Z,3.57
2018-09-19T13:55:15.525Z,3.23
2018-09-19T13:57:43.468Z,3.70
2018-09-19T14:00:10.943Z,3.60
2018-09-19T14:02:38.363Z,3.83
2018-09-19T14:05:05.832Z,3.57
2018-09-19T14:07:33.280Z,3.37
2018-09-19T14:10:00.739Z,3.30
2018-09-19T14:12:28.159Z,3.40
2018-09-19T14:14:55.586Z,3.50
2018-09-19T14:17:23.018Z,3.30
2018-09-19T14:19:50.463Z,3.33
2018-09-19T14:22:18.007Z,3.97
2018-09-19T14:24:45.482Z,2.93
2018-09-19T14:27:12.919Z,3.43
2018-09-19T14:29:40.370Z,3.27
2018-09-19T14:32:07.802Z,3.93
2018-09-19T14:34:35.235Z,3.83
2018-09-19T14:37:02.703Z,3.90
2018-09-19T14:39:30.253Z,3.40
2018-09-19T14:41:58.566Z,3.83
2018-09-19T14:44:26.012Z,4.30
2018-09-19T14:46:56.978Z,3.70
2018-09-19T14:49:24.424Z,3.20
2018-09-19T14:51:51.895Z,4.07
2018-09-19T14:54:19.372Z,3.30
2018-09-19T14:56:47.743Z,3.43
2018-09-19T14:59:16.195Z,3.70
2018-09-19T15:01:43.654Z,3.37
2018-09-19T15:04:11.071Z,3.60
2018-09-19T15:06:38.495Z,2.80
2018-09-19T15:09:07.787Z,3.60
2018-09-19T15:11:35.247Z,3.50
2018-09-19T15:14:02.674Z,4.10
2018-09-19T15:16:30.135Z,3.20
2018-09-19T15:18:57.575Z,3.37
2018-09-19T15:21:25.034Z,2.87
2018-09-19T15:23:52.728Z,3.10
2018-09-19T15:26:20.536Z,3.63
2018-09-19T15:28:48.241Z,3.33
2018-09-19T15:31:15.685Z,3.07
2018-09-19T15:33:43.124Z,2.80
2018-09-19T15:36:10.691Z,2.60
2018-09-19T15:38:38.127Z,2.83
2018-09-19T15:41:05.608Z,3.60
2018-09-19T15:43:33.170Z,2.73
2018-09-19T15:46:00.582Z,2.77
2018-09-19T15:48:28.209Z,3.10
2018-09-19T15:50:55.643Z,2.60
2018-09-19T15:53:23.078Z,2.73
2018-09-19T15:55:50.569Z,2.73
2018-09-19T15:58:18.197Z,3.40
2018-09-19T16:00:45.736Z,2.80
2018-09-19T16:03:13.234Z,3.07
2018-09-19T16:05:40.723Z,3.07
2018-09-19T16:08:08.136Z,3.00
2018-09-19T16:10:35.813Z,2.50
2018-09-19T16:13:03.875Z,2.90
2018-09-19T16:15:33.186Z,3.57
2018-09-19T16:18:01.475Z,2.70
2018-09-19T16:20:29.104Z,3.00
2018-09-19T16:22:56.665Z,3.30
2018-09-19T16:25:24.124Z,3.37
2018-09-19T16:27:51.648Z,3.10
2018-09-19T16:30:19.171Z,3.37
2018-09-19T16:32:46.632Z,3.27
2018-09-19T16:35:14.143Z,3.20
2018-09-19T16:37:41.588Z,3.73
2018-09-19T16:40:09.152Z,3.13
2018-09-19T16:42:36.612Z,3.40
2018-09-19T16:45:04.345Z,3.67
2018-09-19T16:47:31.781Z,3.10
2018-09-19T16:49:59.298Z,3.73
2018-09-19T16:52:26.791Z,3.17
2018-09-19T16:54:54.295Z,2.90
2018-09-19T16:57:21.740Z,3.23
2018-09-19T16:59:49.223Z,4.37
2018-09-19T17:02:16.728Z,4.83
2018-09-19T17:04:44.171Z,4.37
2018-09-19T17:07:11.782Z,4.20
2018-09-19T17:09:39.327Z,4.63
2018-09-19T17:12:06.876Z,3.97
2018-09-19T17:14:34.400Z,3.90
2018-09-19T17:17:01.923Z,3.97
2018-09-19T17:19:29.367Z,3.33
2018-09-19T17:21:57.076Z,3.30
2018-09-19T17:24:24.509Z,3.47
2018-09-19T17:26:51.936Z,3.70
2018-09-19T17:29:19.507Z,4.13
2018-09-19T17:31:46.986Z,3.37
2018-09-19T17:34:14.406Z,3.77
2018-09-19T17:36:41.850Z,3.20
2018-09-19T17:39:11.015Z,3.10
2018-09-19T17:41:38.460Z,4.03
2018-09-19T17:44:05.908Z,3.70
2018-09-19T17:46:33.343Z,3.47
2018-09-19T17:49:00.770Z,3.47
2018-09-19T17:51:28.202Z,3.23
2018-09-19T17:53:55.647Z,3.00
2018-09-19T17:56:23.107Z,4.30
2018-09-19T17:58:50.674Z,3.70
2018-09-19T18:01:18.124Z,3.57
2018-09-19T18:03:45.750Z,3.77
2018-09-19T18:06:13.486Z,3.20
2018-09-19T18:08:40.920Z,3.33
2018-09-19T18:11:08.383Z,3.17
2018-09-19T18:13:36.364Z,3.47
2018-09-19T18:16:03.824Z,3.13
2018-09-19T18:18:31.250Z,3.40
2018-09-19T18:20:58.775Z,3.00
2018-09-19T18:23:26.226Z,3.00
2018-09-19T18:25:53.654Z,4.33
2018-09-19T18:28:21.075Z,3.40
2018-09-19T18:30:48.504Z,3.70
2018-09-19T18:33:15.938Z,4.30
2018-09-19T18:35:43.394Z,3.80
2018-09-19T18:38:10.840Z,3.63
2018-09-19T18:40:38.259Z,3.90
2018-09-19T18:43:05.703Z,4.03
2018-09-19T18:45:33.160Z,3.40
2018-09-19T18:48:00.594Z,3.53
2018-09-19T18:50:28.092Z,3.67
2018-09-19T18:52:55.524Z,3.53
2018-09-19T18:55:23.036Z,4.17
2018-09-19T18:57:50.533Z,4.00
2018-09-19T19:00:17.975Z,3.70
2018-09-19T19:02:45.457Z,3.00
2018-09-19T19:05:12.924Z,3.50
2018-09-19T19:07:40.357Z,3.60
2018-09-19T19:10:07.895Z,3.87
2018-09-19T19:12:35.316Z,3.50
2018-09-19T19:15:03.239Z,3.80
2018-09-19T19:17:30.680Z,3.57
2018-09-19T19:19:58.115Z,3.93
2018-09-19T19:22:25.599Z,3.87
2018-09-19T19:24:53.048Z,3.33
2018-09-19T19:27:20.551Z,3.83
2018-09-19T19:29:47.984Z,3.83
2018-09-19T19:32:15.432Z,3.60
2018-09-19T19:34:42.872Z,3.87
2018-09-19T19:37:10.279Z,4.10
2018-09-19T19:39:37.784Z,4.07
2018-09-19T19:42:05.216Z,4.30
2018-09-19T19:44:32.657Z,3.20
2018-09-19T19:47:00.202Z,3.77
2018-09-19T19:49:27.614Z,3.57
2018-09-19T19:51:55.081Z,4.00
2018-09-19T19:54:22.555Z,3.67
2018-09-19T19:56:50.035Z,3.37
2018-09-19T19:59:17.536Z,3.27
2018-09-19T20:01:44.923Z,3.90
2018-09-19T20:04:12.382Z,3.50
2018-09-19T20:06:40.528Z,3.50
2018-09-19T20:09:08.567Z,4.00
2018-09-19T20:11:36.223Z,4.17
2018-09-19T20:14:03.654Z,3.70
2018-09-19T20:16:31.152Z,4.00
2018-09-19T20:18:59.334Z,4.00
2018-09-19T20:21:26.794Z,3.57
2018-09-19T20:23:54.267Z,4.37
2018-09-19T20:26:21.693Z,3.67
2018-09-19T20:28:49.150Z,3.50
2018-09-19T20:31:16.582Z,3.63
2018-09-19T20:33:44.014Z,4.00
2018-09-19T20:36:12.287Z,3.57
2018-09-19T20:38:39.700Z,4.13
2018-09-19T20:41:07.293Z,4.77
2018-09-19T20:43:34.692Z,3.57
2018-09-19T20:46:02.118Z,3.23
2018-09-19T20:48:29.562Z,4.60
2018-09-19T20:50:57.008Z,4.00
2018-09-19T20:53:24.436Z,4.10
2018-09-19T20:55:51.992Z,4.23
2018-09-19T20:58:19.434Z,4.03
2018-09-19T21:00:46.885Z,4.07
2018-09-19T21:03:14.397Z,3.47
2018-09-19T21:05:41.883Z,3.20
2018-09-19T21:08:09.292Z,3.27
2018-09-19T21:10:36.723Z,3.93
2018-09-19T21:13:04.197Z,4.27
2018-09-19T21:15:31.679Z,5.23
2018-09-19T21:17:59.131Z,5.60
2018-09-19T21:20:26.603Z,5.47
2018-09-19T21:22:54.256Z,5.03
2018-09-19T21:25:21.694Z,4.80
2018-09-19T21:27:49.112Z,4.93
2018-09-19T21:30:16.682Z,4.23
2018-09-19T21:32:44.123Z,6.53
2018-09-19T21:35:11.555Z,4.30
2018-09-19T21:37:38.999Z,4.27
2018-09-19T21:40:06.438Z,4.10
2018-09-19T21:42:33.935Z,4.53
2018-09-19T21:45:01.383Z,3.80
2018-09-19T21:47:28.818Z,3.63
2018-09-19T21:49:56.320Z,3.67
2018-09-19T21:52:23.803Z,4.30
2018-09-19T21:54:51.230Z,3.63
2018-09-19T21:57:18.683Z,4.60
2018-09-19T21:59:47.075Z,4.00
2018-09-19T22:02:16.445Z,3.37
2018-09-19T22:04:44.420Z,4.03
2018-09-19T22:07:11.827Z,3.33
2018-09-19T22:09:39.335Z,5.57
2018-09-19T22:12:09.112Z,5.27
2018-09-19T22:14:36.905Z,5.43
2018-09-19T22:17:04.336Z,5.20
2018-09-19T22:19:31.787Z,5.07
2018-09-19T22:21:59.214Z,5.60
2018-09-19T22:24:26.653Z,6.50
2018-09-19T22:26:54.092Z,7.40
2018-09-19T22:29:21.504Z,6.03
2018-09-19T22:31:48.927Z,5.93
2018-09-19T22:34:16.367Z,5.47
2018-09-19T22:36:43.838Z,4.47
2018-09-19T22:39:11.263Z,5.80
2018-09-19T22:41:38.704Z,6.40
2018-09-19T22:44:06.827Z,4.60
2018-09-19T22:46:34.301Z,5.23
2018-09-19T22:49:01.752Z,6.30
2018-09-19T22:51:29.215Z,6.13
2018-09-19T22:53:56.716Z,5.37
2018-09-19T22:56:24.175Z,6.67
2018-09-19T22:58:51.653Z,5.10
2018-09-19T23:01:19.091Z,6.57
2018-09-19T23:03:46.537Z,5.27
2018-09-19T23:06:13.977Z,4.83
2018-09-19T23:08:41.400Z,5.10
2018-09-19T23:11:08.839Z,5.17
2018-09-19T23:13:36.265Z,5.00
2018-09-19T23:16:03.689Z,4.30
2018-09-19T23:18:31.100Z,6.23
2018-09-19T23:20:58.531Z,6.00
2018-09-19T23:23:25.963Z,5.63
2018-09-19T23:25:53.415Z,5.07
2018-09-19T23:28:20.875Z,4.90
2018-09-19T23:30:48.361Z,4.30
2018-09-19T23:33:15.824Z,5.53
2018-09-19T23:35:43.281Z,5.07
2018-09-19T23:38:10.727Z,5.33
2018-09-19T23:40:38.200Z,5.43
2018-09-19T23:43:05.631Z,5.00
2018-09-19T23:45:33.100Z,5.30
2018-09-19T23:48:00.710Z,6.33
2018-09-19T23:50:28.162Z,5.30
2018-09-19T23:52:55.588Z,5.43
2018-09-19T23:55:23.019Z,5.90
2018-09-19T23:57:50.476Z,5.33
